Time;durP1;ratioP1;P1;durP2;ratioP2;P2;SDS_P1;SDS_P2;PMS_P1;PMS_P2;Temp;Humidity;BMP_temperature;BMP_pressure;BME280_temperature;BME280_humidity;BME280_pressure;Samples;Min_cycle;Max_cycle;Signal;HPM_P1;HPM_P2
2022/05/28 00:01:17;;;;;;;;;;;;;;;10.97;100.00;100054.13;5074004;28;20271;-79
2022/05/28 00:03:46;;;;;;;;;;;;;;;10.93;100.00;100044.94;5107799;28;19974;-79
2022/05/28 00:06:15;;;;;;;;;;;;;;;10.82;100.00;100039.38;5073802;28;20319;-79
2022/05/28 00:08:42;;;;;;;;;;;;;;;10.94;100.00;100027.75;5075248;28;19925;-79
2022/05/28 00:11:18;;;;;;;;;;;;;;;10.62;100.00;100032.59;5074819;28;19993;-79
2022/05/28 00:13:45;;;;;;;;;;;;;;;10.89;100.00;100038.53;5074879;28;19931;-79
2022/05/28 00:16:13;;;;;;;;;;;;;;;10.74;100.00;100032.19;5075100;28;20019;-79
2022/05/28 00:18:41;;;;;;;;;;;;;;;10.70;100.00;100030.59;5074039;28;20368;-79
2022/05/28 00:21:08;;;;;;;;;;;;;;;10.83;100.00;100028.97;5073362;28;19924;-80
2022/05/28 00:23:36;;;;;;;;;;;;;;;10.69;100.00;100029.00;5057080;28;19924;-79
2022/05/28 00:26:04;;;;;;;;;;;;;;;11.21;100.00;100028.06;5090476;28;19928;-79
2022/05/28 00:28:32;;;;;;;;;;;;;;;10.94;100.00;100027.75;5073612;28;19924;-79
2022/05/28 00:31:00;;;;;;;;;;;;;;;10.75;100.00;100038.59;5073575;28;19986;-79
2022/05/28 00:33:27;;;;;;;;;;;;;;;11.21;100.00;100036.47;5073315;28;20311;-79
2022/05/28 00:35:54;;;;;;;;;;;;;;;10.99;100.00;100044.09;5073283;28;19960;-79
2022/05/28 00:38:24;;;;;;;;;;;;;;;10.79;100.00;100033.78;5056625;28;20489;-79
2022/05/28 00:40:53;;;;;;;;;;;;;;;11.02;100.00;100039.72;5107009;28;20372;-79
2022/05/28 00:43:20;;;;;;;;;;;;;;;11.02;100.00;100036.13;5074262;28;20335;-79
2022/05/28 00:45:50;;;;;;;;;;;;;;;11.06;100.00;100037.72;5056876;28;20376;-79
2022/05/28 00:48:20;;;;;;;;;;;;;;;11.08;100.00;100032.53;5073005;28;19971;-79
2022/05/28 00:50:48;;;;;;;;;;;;;;;10.66;100.00;100030.59;5056572;28;19947;-79
2022/05/28 00:53:15;;;;;;;;;;;;;;;10.66;100.00;100024.22;5072895;28;19929;-79
2022/05/28 00:55:42;;;;;;;;;;;;;;;10.68;100.00;100031.00;5106392;28;19925;-79
2022/05/28 00:58:09;;;;;;;;;;;;;;;10.82;100.00;100032.97;5073137;28;19956;-79
2022/05/28 01:00:37;;;;;;;;;;;;;;;10.83;100.00;100029.78;5072826;28;19925;-79
2022/05/28 01:03:13;;;;;;;;;;;;;;;10.80;100.00;100025.00;5073795;28;19925;-79
2022/05/28 01:05:40;;;;;;;;;;;;;;;10.89;100.00;100022.56;5072859;28;19924;-80
2022/05/28 01:08:14;;;;;;;;;;;;;;;10.97;100.00;100017.75;5072662;28;19947;-79
2022/05/28 01:10:42;;;;;;;;;;;;;;;10.64;100.00;100027.41;5073942;28;19924;-79
2022/05/28 01:13:14;;;;;;;;;;;;;;;10.72;100.00;100033.81;5072628;28;19924;-79
2022/05/28 01:15:48;;;;;;;;;;;;;;;10.82;100.00;100024.59;5074034;28;19931;-78
2022/05/28 01:18:19;;;;;;;;;;;;;;;10.63;100.00;100019.44;5074613;28;19925;-79
2022/05/28 01:20:53;;;;;;;;;;;;;;;10.47;100.00;100017.03;5073832;28;20014;-79
2022/05/28 01:23:20;;;;;;;;;;;;;;;10.42;100.00;100025.03;5055913;28;19931;-80
2022/05/28 01:26:02;;;;;;;;;;;;;;;10.45;100.00;100024.25;5072783;28;19924;-79
2022/05/28 01:28:34;;;;;;;;;;;;;;;10.55;100.00;100023.44;5072631;28;19960;-79
2022/05/28 01:31:02;;;;;;;;;;;;;;;10.46;100.00;100028.63;5073954;28;19929;-79
2022/05/28 01:33:30;;;;;;;;;;;;;;;10.38;100.00;100030.63;5073912;28;20023;-79
2022/05/28 01:35:58;;;;;;;;;;;;;;;10.41;100.00;100035.41;5072612;28;19971;-79
2022/05/28 01:38:26;;;;;;;;;;;;;;;10.73;100.00;100027.00;5072431;28;19935;-79
2022/05/28 01:40:54;;;;;;;;;;;;;;;10.76;100.00;100023.41;5072484;28;20379;-79
2022/05/28 01:43:21;;;;;;;;;;;;;;;10.86;100.00;100028.16;5072406;28;19965;-79
2022/05/28 01:45:49;;;;;;;;;;;;;;;10.85;100.00;100026.56;5073573;28;19925;-79
2022/05/28 01:48:18;;;;;;;;;;;;;;;11.06;100.00;100029.31;5072337;28;20284;-79
2022/05/28 01:50:47;;;;;;;;;;;;;;;11.12;100.00;100013.72;5073815;28;19925;-79
2022/05/28 01:54:07;;;;;;;;;;;;;;;10.93;100.00;100016.97;5055496;28;19935;-79
2022/05/28 01:56:04;;;;;;;;;;;;;;;10.87;100.00;100018.59;5073667;28;19924;-79
2022/05/28 01:58:31;;;;;;;;;;;;;;;10.66;100.00;100018.63;5073745;28;19974;-79
2022/05/28 02:00:59;;;;;;;;;;;;;;;10.75;100.00;100027.41;5072277;28;19931;-79
2022/05/28 02:03:27;;;;;;;;;;;;;;;11.01;100.00;100028.94;5072127;28;20025;-79
2022/05/28 02:05:55;;;;;;;;;;;;;;;10.43;100.00;100021.84;5073457;28;19929;-80
2022/05/28 02:08:23;;;;;;;;;;;;;;;10.38;100.00;100011.06;5057861;28;19924;-80
2022/05/28 02:10:58;;;;;;;;;;;;;;;10.62;100.00;100023.41;5075949;28;19924;-79
2022/05/28 02:13:28;;;;;;;;;;;;;;;10.78;100.00;100023.81;5077104;28;20410;-79
2022/05/28 02:15:57;;;;;;;;;;;;;;;10.78;100.00;100015.41;5077088;28;19929;-79
2022/05/28 02:18:31;;;;;;;;;;;;;;;10.91;100.00;100019.38;5076089;28;19928;-80
2022/05/28 02:21:07;;;;;;;;;;;;;;;11.13;100.00;100014.53;5076693;28;19924;-80
2022/05/28 02:23:39;;;;;;;;;;;;;;;10.96;100.00;100011.38;5076903;28;19928;-80
2022/05/28 02:26:15;;;;;;;;;;;;;;;10.87;100.00;100013.78;5077185;28;19948;-79
2022/05/28 02:28:43;;;;;;;;;;;;;;;10.57;100.00;100021.03;5093273;28;19979;-79
2022/05/28 02:31:14;;;;;;;;;;;;;;;10.37;100.00;100019.84;5077280;28;19956;-80
2022/05/28 02:33:43;;;;;;;;;;;;;;;10.75;100.00;100010.63;5075784;28;19925;-79
2022/05/28 02:36:29;;;;;;;;;;;;;;;10.50;100.00;100005.06;5075306;28;20066;-80
2022/05/28 02:38:58;;;;;;;;;;;;;;;10.13;100.00;99995.50;5108775;28;20383;-80
2022/05/28 02:41:25;;;;;;;;;;;;;;;10.25;100.00;100003.47;5059422;28;19935;-80
2022/05/28 02:43:52;;;;;;;;;;;;;;;10.33;100.00;100016.25;5058956;28;19925;-80
2022/05/28 02:46:20;;;;;;;;;;;;;;;10.37;100.00;100005.88;5058973;28;19924;-80
2022/05/28 02:48:47;;;;;;;;;;;;;;;10.13;100.00;100010.25;5076880;28;20014;-81
2022/05/28 02:51:16;;;;;;;;;;;;;;;10.14;100.00;100005.47;5076582;28;19960;-80
2022/05/28 02:53:43;;;;;;;;;;;;;;;9.95;100.00;100000.25;5075464;28;19924;-80
2022/05/28 02:56:10;;;;;;;;;;;;;;;10.15;100.00;99998.69;5076576;28;19931;-80
2022/05/28 02:58:38;;;;;;;;;;;;;;;10.39;100.00;100009.84;5075183;28;19975;-80
2022/05/28 03:01:16;;;;;;;;;;;;;;;10.17;100.00;100019.44;5075771;28;19943;-79
2022/05/28 03:03:44;;;;;;;;;;;;;;;10.13;100.00;100012.25;5075182;28;19924;-80
2022/05/28 03:06:11;;;;;;;;;;;;;;;10.37;100.00;100028.22;5076383;28;20019;-79
2022/05/28 03:08:38;;;;;;;;;;;;;;;10.39;100.00;100009.84;5058527;28;19931;-79
2022/05/28 03:11:05;;;;;;;;;;;;;;;9.85;100.00;100017.75;5076453;28;19928;-81
2022/05/28 03:13:32;;;;;;;;;;;;;;;9.95;100.00;100020.56;5074994;28;19932;-80
2022/05/28 03:15:59;;;;;;;;;;;;;;;9.93;100.00;100016.59;5075567;28;19924;-79
2022/05/28 03:18:26;;;;;;;;;;;;;;;9.90;100.00;100014.59;5076164;28;20015;-79
2022/05/28 03:20:53;;;;;;;;;;;;;;;9.79;100.00;100022.13;5074903;28;19932;-79
2022/05/28 03:23:20;;;;;;;;;;;;;;;9.99;100.00;100017.78;5091612;28;19932;-79
2022/05/28 03:25:47;;;;;;;;;;;;;;;10.31;100.00;100015.84;5076328;28;20054;-79
2022/05/28 03:28:14;;;;;;;;;;;;;;;10.19;100.00;100008.66;5075790;28;19995;-79
2022/05/28 03:30:42;;;;;;;;;;;;;;;10.38;100.00;100005.47;5076108;28;20019;-79
2022/05/28 03:33:09;;;;;;;;;;;;;;;10.29;100.00;100010.66;5075615;28;19939;-80
2022/05/28 03:35:54;;;;;;;;;;;;;;;10.31;100.00;100013.88;5060598;28;19924;-80
2022/05/28 03:38:31;;;;;;;;;;;;;;;10.38;100.00;100007.47;5106028;28;19928;-79
2022/05/28 03:41:00;;;;;;;;;;;;;;;10.45;100.00;100015.88;5075655;28;20383;-79
2022/05/28 03:43:28;;;;;;;;;;;;;;;10.77;100.00;100002.63;5108230;28;19928;-79
2022/05/28 03:45:55;;;;;;;;;;;;;;;10.83;100.00;100007.41;5057711;28;20388;-79
2022/05/28 03:48:22;;;;;;;;;;;;;;;10.82;100.00;100003.03;5074423;28;20376;-79
2022/05/28 03:50:49;;;;;;;;;;;;;;;10.81;100.00;99997.84;5074477;28;20342;-79
2022/05/28 03:53:17;;;;;;;;;;;;;;;10.72;100.00;100000.25;5074173;28;19948;-80
2022/05/28 03:55:44;;;;;;;;;;;;;;;10.28;100.00;100008.28;5057612;28;19925;-80
2022/05/28 03:58:11;;;;;;;;;;;;;;;10.48;100.00;100003.88;5075603;28;19932;-79
2022/05/28 04:00:38;;;;;;;;;;;;;;;10.40;100.00;99996.69;5107744;28;19928;-80
2022/05/28 04:03:05;;;;;;;;;;;;;;;10.38;100.00;100007.47;5073773;28;19929;-79
2022/05/28 04:05:33;;;;;;;;;;;;;;;10.52;100.00;100001.88;5091134;28;19932;-79
2022/05/28 04:08:00;;;;;;;;;;;;;;;10.55;100.00;100001.06;5090849;28;19924;-80
2022/05/28 04:10:26;;;;;;;;;;;;;;;10.85;100.00;100001.41;5075278;28;20040;-79
2022/05/28 04:12:53;;;;;;;;;;;;;;;10.75;100.00;99996.66;5090500;28;19924;-80
2022/05/28 04:15:20;;;;;;;;;;;;;;;10.60;100.00;100006.25;5073811;28;19956;-79
2022/05/28 04:17:47;;;;;;;;;;;;;;;10.79;100.00;100011.41;5056973;28;20269;-80
2022/05/28 04:20:22;;;;;;;;;;;;;;;10.72;100.00;100017.03;5057498;28;19935;-77
2022/05/28 04:22:49;;;;;;;;;;;;;;;10.88;100.00;100009.00;5073604;28;19925;-80
2022/05/28 04:25:17;;;;;;;;;;;;;;;10.68;100.00;100016.22;5073890;28;20287;-80
2022/05/28 04:27:44;;;;;;;;;;;;;;;11.13;100.00;100011.72;5107545;28;19978;-80
2022/05/28 04:30:12;;;;;;;;;;;;;;;10.99;100.00;100020.97;5074398;28;19970;-80
2022/05/28 04:32:39;;;;;;;;;;;;;;;11.15;100.00;100014.94;5074874;28;19924;-80
2022/05/28 04:35:06;;;;;;;;;;;;;;;11.16;100.00;100008.13;5074838;28;19929;-80
2022/05/28 04:37:33;;;;;;;;;;;;;;;11.21;100.00;100016.88;5073532;28;20370;-80
2022/05/28 04:40:00;;;;;;;;;;;;;;;11.28;100.00;100016.88;5074701;28;20022;-80
2022/05/28 04:42:28;;;;;;;;;;;;;;;10.94;100.00;100018.56;5074523;28;19968;-80
2022/05/28 04:44:56;;;;;;;;;;;;;;;11.23;100.00;100014.50;5074951;28;20052;-80
2022/05/28 04:47:24;;;;;;;;;;;;;;;11.31;100.00;100021.66;5056909;28;19924;-79
2022/05/28 04:49:51;;;;;;;;;;;;;;;11.21;100.00;100016.09;5074784;28;19925;-80
2022/05/28 04:52:18;;;;;;;;;;;;;;;11.42;100.00;100016.81;5106855;28;19924;-80
2022/05/28 04:54:45;;;;;;;;;;;;;;;11.18;100.00;100022.50;5074451;28;20027;-80
2022/05/28 04:57:12;;;;;;;;;;;;;;;11.02;100.00;100022.94;5074362;28;19932;-80
2022/05/28 04:59:40;;;;;;;;;;;;;;;10.99;100.00;100010.56;5073587;28;19924;-80
2022/05/28 05:02:08;;;;;;;;;;;;;;;11.35;100.00;100011.25;5073071;28;19947;-80
2022/05/28 05:04:35;;;;;;;;;;;;;;;11.32;100.00;100020.44;5090166;28;20398;-79
2022/05/28 05:07:03;;;;;;;;;;;;;;;11.09;100.00;100014.53;5073404;28;19924;-80
2022/05/28 05:09:30;;;;;;;;;;;;;;;11.39;100.00;100011.25;5056492;28;20409;-80
2022/05/28 05:11:57;;;;;;;;;;;;;;;11.34;100.00;100023.66;5073483;28;19924;-80
2022/05/28 05:14:24;;;;;;;;;;;;;;;11.45;100.00;100027.19;5072961;28;19925;-80
2022/05/28 05:16:51;;;;;;;;;;;;;;;11.57;100.00;100017.56;5073120;28;19925;-80
2022/05/28 05:19:19;;;;;;;;;;;;;;;11.73;100.00;100021.50;5074362;28;20438;-80
2022/05/28 05:21:46;;;;;;;;;;;;;;;11.92;100.00;100020.19;5072742;28;20341;-80
2022/05/28 05:24:13;;;;;;;;;;;;;;;11.97;100.00;100014.94;5074137;28;20362;-80
2022/05/28 05:26:40;;;;;;;;;;;;;;;12.15;100.00;100021.22;5089912;28;19925;-80
2022/05/28 05:29:07;;;;;;;;;;;;;;;12.30;100.00;100016.28;5106572;28;20368;-80
2022/05/28 05:31:34;;;;;;;;;;;;;;;12.48;100.00;100028.97;5074340;28;19947;-80
2022/05/28 05:34:01;;;;;;;;;;;;;;;12.46;100.00;100033.41;5074098;28;20356;-80
2022/05/28 05:36:29;;;;;;;;;;;;;;;12.47;100.00;100021.75;5072807;28;19924;-80
2022/05/28 05:38:55;;;;;;;;;;;;;;;12.64;100.00;100018.03;5074194;28;20035;-79
2022/05/28 05:41:22;;;;;;;;;;;;;;;12.73;100.00;100018.34;5074081;28;19955;-80
2022/05/28 05:43:49;;;;;;;;;;;;;;;12.70;100.00;100013.56;5076527;28;20036;-80
2022/05/28 05:46:19;;;;;;;;;;;;;;;12.81;100.00;100019.06;5093242;28;20409;-79
2022/05/28 05:48:49;;;;;;;;;;;;;;;12.87;100.00;100027.81;5109874;28;20401;-80
2022/05/28 05:51:17;;;;;;;;;;;;;;;12.94;100.00;100022.13;5078223;28;19931;-80
2022/05/28 05:53:44;;;;;;;;;;;;;;;13.02;100.00;100020.88;5076635;28;19926;-80
2022/05/28 05:56:11;;;;;;;;;;;;;;;12.96;100.00;100025.31;5077936;28;19994;-80
2022/05/28 05:58:39;;;;;;;;;;;;;;;13.06;100.00;100016.00;5076326;28;19938;-79
2022/05/28 06:01:06;;;;;;;;;;;;;;;13.04;100.00;100026.88;5077846;28;19967;-80
2022/05/28 06:03:33;;;;;;;;;;;;;;;13.20;100.00;100018.66;5076382;28;19924;-80
2022/05/28 06:06:01;;;;;;;;;;;;;;;13.57;100.00;100035.47;5093549;28;19925;-80
2022/05/28 06:08:29;;;;;;;;;;;;;;;13.55;100.00;100023.84;5077415;28;20535;-80
2022/05/28 06:10:55;;;;;;;;;;;;;;;13.52;100.00;100019.06;5076360;28;19928;-80
2022/05/28 06:13:23;;;;;;;;;;;;;;;13.77;100.00;100025.94;5077609;28;20016;-80
2022/05/28 06:15:50;;;;;;;;;;;;;;;14.07;100.00;100030.75;5076324;28;20432;-80
2022/05/28 06:18:17;;;;;;;;;;;;;;;14.28;100.00;100033.28;5076170;28;19931;-80
2022/05/28 06:20:44;;;;;;;;;;;;;;;14.80;100.00;100023.13;5076097;28;19925;-80
2022/05/28 06:23:11;;;;;;;;;;;;;;;14.82;100.00;100012.25;5076923;28;19928;-79
2022/05/28 06:25:38;;;;;;;;;;;;;;;14.68;100.00;100015.31;5077007;28;19932;-79
2022/05/28 06:29:35;;;;;;;;;;;;;;;15.12;100.00;100031.00;5091519;28;19966;-80
2022/05/28 06:32:02;;;;;;;;;;;;;;;15.07;100.00;100018.22;5091311;28;19924;-80
2022/05/28 06:34:31;;;;;;;;;;;;;;;15.08;100.00;100014.19;5091190;28;19963;-79
2022/05/28 06:36:58;;;;;;;;;;;;;;;15.05;100.00;100019.88;5089906;28;19931;-79
2022/05/28 06:39:25;;;;;;;;;;;;;;;15.13;100.00;100015.72;5090099;28;19925;-80
2022/05/28 06:41:53;;;;;;;;;;;;;;;15.15;100.00;100016.06;5107021;28;19924;-80
2022/05/28 06:44:20;;;;;;;;;;;;;;;15.17;100.00;100022.88;5090241;28;19928;-80
2022/05/28 06:46:48;;;;;;;;;;;;;;;15.27;100.00;100007.78;5090141;28;20019;-79
2022/05/28 06:49:15;;;;;;;;;;;;;;;15.74;100.00;100016.88;5090146;28;19975;-79
2022/05/28 06:51:42;;;;;;;;;;;;;;;16.01;100.00;100001.34;5091155;28;19971;-79
2022/05/28 06:54:08;;;;;;;;;;;;;;;16.07;100.00;100008.06;5073182;28;19925;-80
2022/05/28 06:56:36;;;;;;;;;;;;;;;16.59;100.00;100005.22;5089721;28;19931;-80
2022/05/28 06:59:03;;;;;;;;;;;;;;;18.62;100.00;100009.72;5080332;28;20034;-80
2022/05/28 07:01:33;;;;;;;;;;;;;;;19.29;100.00;99982.69;5070899;28;20396;-80
2022/05/28 07:04:00;;;;;;;;;;;;;;;20.76;100.00;99972.38;5086245;28;20034;-80
2022/05/28 07:06:29;;;;;;;;;;;;;;;22.31;100.00;99972.47;5069253;28;19932;-80
2022/05/28 07:08:56;;;;;;;;;;;;;;;24.03;100.00;99962.59;5052516;28;19924;-80
2022/05/28 07:11:23;;;;;;;;;;;;;;;24.67;100.00;99966.97;5068621;28;19960;-80
2022/05/28 07:13:50;;;;;;;;;;;;;;;25.75;100.00;99972.97;5086002;28;19924;-80
2022/05/28 07:16:17;;;;;;;;;;;;;;;25.21;100.00;99965.34;5069183;28;19928;-80
2022/05/28 07:18:45;;;;;;;;;;;;;;;25.15;100.00;99972.28;5070393;28;19932;-80
2022/05/28 07:21:12;;;;;;;;;;;;;;;25.14;100.00;99965.00;5052387;28;19931;-80
2022/05/28 07:23:40;;;;;;;;;;;;;;;22.97;100.00;99968.31;5068899;28;19929;-80
2022/05/28 07:26:07;;;;;;;;;;;;;;;21.56;100.00;99995.59;5068923;28;19925;-80
2022/05/28 07:28:36;;;;;;;;;;;;;;;20.82;100.00;99993.19;5102599;28;19925;-80
2022/05/28 07:31:10;;;;;;;;;;;;;;;20.19;100.00;99987.34;5070197;28;19924;-80
2022/05/28 07:33:39;;;;;;;;;;;;;;;19.89;100.00;99988.13;5052092;28;19925;-81
2022/05/28 07:36:08;;;;;;;;;;;;;;;19.99;100.00;99992.59;5068912;28;19924;-79
2022/05/28 07:38:45;;;;;;;;;;;;;;;19.81;100.00;100004.63;5069949;28;19924;-81
2022/05/28 07:41:19;;;;;;;;;;;;;;;19.30;100.00;100006.94;5054878;28;19970;-79
2022/05/28 07:43:47;;;;;;;;;;;;;;;17.81;100.00;100011.53;5056807;28;19925;-77
2022/05/28 07:46:21;;;;;;;;;;;;;;;18.29;100.00;100016.88;5055536;28;19925;-80
2022/05/28 07:48:49;;;;;;;;;;;;;;;18.33;100.00;100009.03;5055216;28;19925;-79
2022/05/28 07:51:17;;;;;;;;;;;;;;;18.23;100.00;100007.34;5056538;28;19925;-77
2022/05/28 07:53:44;;;;;;;;;;;;;;;18.37;100.00;100008.94;5056636;28;19925;-79
2022/05/28 07:56:12;;;;;;;;;;;;;;;18.32;100.00;100006.66;5056398;28;19925;-79
2022/05/28 07:58:41;;;;;;;;;;;;;;;17.90;100.00;100015.25;5055064;28;20012;-79
2022/05/28 08:01:17;;;;;;;;;;;;;;;17.85;100.00;100012.19;5056243;28;20384;-79
2022/05/28 08:03:44;;;;;;;;;;;;;;;18.00;100.00;100007.69;5054908;28;19932;-79
2022/05/28 08:06:11;;;;;;;;;;;;;;;17.93;100.00;100024.88;5055189;28;19924;-78
2022/05/28 08:08:38;;;;;;;;;;;;;;;18.22;100.00;100008.59;5055986;28;20031;-79
2022/05/28 08:11:05;;;;;;;;;;;;;;;18.16;100.00;100018.88;5066547;28;19925;-79
2022/05/28 08:13:39;;;;;;;;;;;;;;;18.37;100.00;100015.44;5057255;28;19931;-79
2022/05/28 08:16:06;;;;;;;;;;;;;;;18.16;100.00;100007.56;5052709;28;19978;-79
2022/05/28 08:18:36;;;;;;;;;;;;;;;18.45;100.00;100005.44;5052579;28;19932;-79
2022/05/28 08:23:50;;;;;;;;;;;;;;;17.94;100.00;100015.16;5052281;28;19925;-79
2022/05/28 08:26:19;;;;;;;;;;;;;;;17.38;100.00;100016.78;5052084;28;19925;-78
2022/05/28 08:28:48;;;;;;;;;;;;;;;17.61;100.00;100019.38;5063349;28;20003;-79
2022/05/28 08:31:15;;;;;;;;;;;;;;;17.66;100.00;100024.50;5071215;28;19924;-79
2022/05/28 08:33:43;;;;;;;;;;;;;;;17.92;100.00;100026.09;5071766;28;19925;-79
2022/05/28 08:36:20;;;;;;;;;;;;;;;17.78;100.00;100018.06;5070693;28;19947;-79
2022/05/28 08:38:53;;;;;;;;;;;;;;;18.03;100.00;100023.75;5071587;28;19929;-80
2022/05/28 08:41:38;;;;;;;;;;;;;;;18.99;100.00;100022.22;5071875;28;19932;-79
2022/05/28 08:44:08;;;;;;;;;;;;;;;19.45;100.00;100013.66;5071759;28;19925;-79
2022/05/28 08:46:36;;;;;;;;;;;;;;;19.93;100.00;100011.47;5071521;28;19925;-80
2022/05/28 08:49:06;;;;;;;;;;;;;;;19.88;100.00;100003.53;5071930;28;19924;-79
2022/05/28 08:51:42;;;;;;;;;;;;;;;19.70;100.00;100009.91;5070257;28;19924;-80
2022/05/28 08:54:18;;;;;;;;;;;;;;;19.37;100.00;100015.16;5072145;28;19934;-81
2022/05/28 08:56:45;;;;;;;;;;;;;;;19.59;100.00;100003.84;5072146;28;20027;-80
2022/05/28 08:59:15;;;;;;;;;;;;;;;19.14;100.00;99998.59;5073274;28;19925;-80
2022/05/28 09:01:44;;;;;;;;;;;;;;;19.32;100.00;100000.81;5074438;28;19924;-80
2022/05/28 09:04:13;;;;;;;;;;;;;;;19.44;100.00;100005.63;5073588;28;19924;-80
2022/05/28 09:06:43;;;;;;;;;;;;;;;19.91;100.00;99988.44;5074871;28;19932;-80
2022/05/28 09:09:11;;;;;;;;;;;;;;;20.37;100.00;99990.25;5074786;28;19925;-80
2022/05/28 09:11:57;;;;;;;;;;;;;;;19.70;100.00;99982.31;5073087;28;19932;-80
2022/05/28 09:14:29;;;;;;;;;;;;;;;19.58;100.00;99997.38;5073244;28;19931;-80
2022/05/28 09:17:16;;;;;;;;;;;;;;;19.56;100.00;100005.56;5073357;28;20413;-80
2022/05/28 09:19:48;;;;;;;;;;;;;;;19.26;100.00;100003.44;5073159;28;19928;-80
2022/05/28 09:22:15;;;;;;;;;;;;;;;19.23;100.00;99995.84;5074010;28;19924;-80
2022/05/28 09:24:42;;;;;;;;;;;;;;;19.33;100.00;99991.06;5073012;28;19924;-80
2022/05/28 09:27:18;;;;;;;;;;;;;;;19.17;100.00;100000.53;5074129;28;19932;-80
2022/05/28 09:30:04;;;;;;;;;;;;;;;19.12;100.00;100001.09;5074471;28;20053;-80
2022/05/28 09:32:47;;;;;;;;;;;;;;;18.43;100.00;100002.28;5073169;28;19931;-80
2022/05/28 09:35:15;;;;;;;;;;;;;;;18.75;100.00;100006.88;5072923;28;19954;-80
2022/05/28 09:37:42;;;;;;;;;;;;;;;18.67;100.00;99997.03;5074032;28;20248;-80
2022/05/28 09:40:24;;;;;;;;;;;;;;;18.70;100.00;99985.59;5055401;28;19924;-79
2022/05/28 09:43:02;;;;;;;;;;;;;;;17.69;100.00;99993.28;5074191;28;19924;-80
2022/05/28 09:45:30;;;;;;;;;;;;;;;17.56;100.00;99994.50;5073948;28;20429;-80
2022/05/28 09:47:57;;;;;;;;;;;;;;;18.03;100.00;99995.47;5073979;28;19951;-79
2022/05/28 09:50:24;;;;;;;;;;;;;;;18.20;100.00;99982.00;5073913;28;19928;-79
2022/05/28 09:56:01;;;;;;;;;;;;;;;17.96;100.00;99981.56;5074027;28;20046;-80
2022/05/28 09:58:30;;;;;;;;;;;;;;;17.77;100.00;99991.03;5072525;28;19928;-80
2022/05/28 10:01:09;;;;;;;;;;;;;;;17.23;100.00;99990.19;5073926;28;19925;-80
2022/05/28 10:06:30;;;;;;;;;;;;;;;18.10;100.00;99989.59;5053722;28;19979;-80
2022/05/28 10:09:11;;;;;;;;;;;;;;;17.39;100.00;99973.16;5053720;28;19932;-80
2022/05/28 10:11:48;;;;;;;;;;;;;;;16.52;100.00;99976.38;5052778;28;20356;-80
2022/05/28 10:14:16;;;;;;;;;;;;;;;17.02;100.00;99973.84;5052605;28;19932;-80
2022/05/28 10:16:46;;;;;;;;;;;;;;;18.07;100.00;99979.16;5052457;28;19925;-80
2022/05/28 10:19:15;;;;;;;;;;;;;;;18.45;100.00;99974.31;5069307;28;19931;-80
2022/05/28 10:21:47;;;;;;;;;;;;;;;18.75;100.00;99973.69;5052388;28;19933;-80
2022/05/28 10:24:17;;;;;;;;;;;;;;;18.83;100.00;99968.56;5052607;28;19994;-80
2022/05/28 10:26:46;;;;;;;;;;;;;;;18.39;100.00;99961.97;5052702;28;19947;-80
2022/05/28 10:29:18;;;;;;;;;;;;;;;18.57;100.00;99973.50;5068722;28;20406;-80
2022/05/28 10:31:46;;;;;;;;;;;;;;;18.64;100.00;99961.94;5052517;28;19925;-80
2022/05/28 10:34:29;;;;;;;;;;;;;;;19.04;100.00;99962.13;5052097;28;19925;-81
2022/05/28 10:37:10;;;;;;;;;;;;;;;18.89;100.00;99950.53;5035983;28;19925;-81
2022/05/28 10:39:38;;;;;;;;;;;;;;;18.34;100.00;99956.09;5053540;28;19925;-81
2022/05/28 10:42:11;;;;;;;;;;;;;;;18.52;100.00;99956.31;5040958;28;20015;-82
2022/05/28 10:44:39;;;;;;;;;;;;;;;19.02;100.00;99953.31;5072338;28;19931;-81
2022/05/28 10:47:18;;;;;;;;;;;;;;;19.01;100.00;99963.84;5073362;28;19931;-81
2022/05/28 10:50:09;;;;;;;;;;;;;;;19.00;100.00;99956.63;5072227;28;19938;-81
2022/05/28 10:52:36;;;;;;;;;;;;;;;18.73;100.00;99949.91;5072464;28;19924;-81
2022/05/28 10:55:18;;;;;;;;;;;;;;;18.87;100.00;99953.03;5072430;28;19924;-81
2022/05/28 10:58:05;;;;;;;;;;;;;;;18.24;100.00;99954.38;5073308;28;20383;-81
2022/05/28 11:00:44;;;;;;;;;;;;;;;18.50;100.00;99951.09;5088994;28;20379;-81
2022/05/28 11:03:14;;;;;;;;;;;;;;;18.81;100.00;99960.53;5073250;28;19928;-81
2022/05/28 11:05:41;;;;;;;;;;;;;;;18.77;100.00;99957.03;5073592;28;19928;-81
2022/05/28 11:08:27;;;;;;;;;;;;;;;19.30;100.00;99961.59;5072536;28;19932;-81
2022/05/28 11:11:12;;;;;;;;;;;;;;;19.61;100.00;99942.59;5072041;28;19931;-81
2022/05/28 11:13:59;;;;;;;;;;;;;;;19.66;100.00;99947.66;5055545;28;19991;-81
2022/05/28 11:16:47;;;;;;;;;;;;;;;19.45;100.00;99948.47;5075792;28;19924;-78
2022/05/28 11:19:33;;;;;;;;;;;;;;;19.56;100.00;99939.56;5075709;28;20352;-79
2022/05/28 11:22:00;;;;;;;;;;;;;;;19.17;100.00;99938.19;5075706;28;19931;-80
2022/05/28 11:24:45;;;;;;;;;;;;;;;18.35;100.00;99944.31;5076870;28;20375;-80
2022/05/28 11:27:15;;;;;;;;;;;;;;;17.86;100.00;99937.44;5075279;28;19928;-80
2022/05/28 11:29:49;;;;;;;;;;;;;;;16.91;100.00;99947.91;5076592;28;20281;-80
2022/05/28 11:32:16;;;;;;;;;;;;;;;16.86;100.00;99951.28;5075338;28;20026;-80
2022/05/28 11:34:56;;;;;;;;;;;;;;;17.15;100.00;99938.75;5076793;28;19924;-80
2022/05/28 11:37:33;;;;;;;;;;;;;;;17.24;100.00;99946.56;5075182;28;19935;-80
2022/05/28 11:40:12;;;;;;;;;;;;;;;18.07;100.00;99942.41;5108940;28;20044;-80
2022/05/28 11:42:39;;;;;;;;;;;;;;;17.75;100.00;99943.44;5076478;28;19931;-80
2022/05/28 11:45:08;;;;;;;;;;;;;;;18.29;100.00;99932.00;5075330;28;19932;-79
2022/05/28 11:47:44;;;;;;;;;;;;;;;17.62;100.00;99931.31;5076670;28;19932;-79
2022/05/28 11:53:17;;;;;;;;;;;;;;;19.00;100.00;99925.47;5074764;28;20017;-80
2022/05/28 11:55:45;;;;;;;;;;;;;;;18.94;100.00;99924.47;5076328;28;20003;-80
2022/05/28 11:58:18;;;;;;;;;;;;;;;19.38;100.00;99926.09;5076030;28;19931;-80
2022/05/28 12:00:55;;;;;;;;;;;;;;;19.08;100.00;99929.63;5074688;28;19929;-80
2022/05/28 12:03:26;;;;;;;;;;;;;;;19.00;100.00;99922.63;5076154;28;19924;-80
2022/05/28 12:06:02;;;;;;;;;;;;;;;18.94;100.00;99929.34;5074808;28;20379;-79
2022/05/28 12:08:41;;;;;;;;;;;;;;;18.89;100.00;99927.09;5076046;28;19924;-79
2022/05/28 12:11:20;;;;;;;;;;;;;;;18.23;100.00;99936.66;5074670;28;19932;-80
2022/05/28 12:14:11;;;;;;;;;;;;;;;17.25;100.00;99934.81;5091249;28;19956;-79
2022/05/28 12:16:40;;;;;;;;;;;;;;;17.24;100.00;99932.44;5077108;28;20031;-80
2022/05/28 12:19:27;;;;;;;;;;;;;;;17.59;100.00;99935.06;5075875;28;19947;-80
2022/05/28 12:22:05;;;;;;;;;;;;;;;18.09;100.00;99919.31;5074764;28;19931;-79
2022/05/28 12:24:33;;;;;;;;;;;;;;;18.79;100.00;99929.06;5075751;28;19931;-80
2022/05/28 12:29:47;;;;;;;;;;;;;;;19.77;100.00;99918.09;5073569;28;20538;-80
2022/05/28 12:32:18;;;;;;;;;;;;;;;19.32;100.00;99898.81;5073111;28;19928;-79
2022/05/28 12:34:56;;;;;;;;;;;;;;;19.17;100.00;99895.69;5073803;28;20015;-79
2022/05/28 12:37:27;;;;;;;;;;;;;;;18.66;100.00;99897.16;5106650;28;19935;-79
2022/05/28 12:39:59;;;;;;;;;;;;;;;19.17;100.00;99886.41;5107411;28;19931;-79
2022/05/28 12:42:30;;;;;;;;;;;;;;;19.16;100.00;99887.66;5073985;28;19974;-80
2022/05/28 12:45:12;;;;;;;;;;;;;;;19.74;100.00;99891.47;5075567;28;19932;-80
2022/05/28 12:47:40;;;;;;;;;;;;;;;19.01;100.00;99878.88;5074147;28;19932;-80
2022/05/28 12:50:10;;;;;;;;;;;;;;;18.28;100.00;99893.63;5075459;28;19924;-79
2022/05/28 12:52:41;;;;;;;;;;;;;;;17.61;100.00;99895.03;5075466;28;19978;-81
2022/05/28 12:55:12;;;;;;;;;;;;;;;17.30;100.00;99900.38;5074068;28;19954;-78
2022/05/28 12:57:39;;;;;;;;;;;;;;;17.24;100.00;99905.00;5075407;28;19924;-79
2022/05/28 13:00:06;;;;;;;;;;;;;;;17.69;100.00;99897.19;5073695;28;19925;-80
2022/05/28 13:02:39;;;;;;;;;;;;;;;17.91;100.00;99886.00;5072904;28;19932;-79